createdAt,value
2022-12-03T00:00:14.271Z,12.27
2022-12-03T00:03:01.897Z,12.63
2022-12-03T00:05:49.457Z,13.77
2022-12-03T00:08:36.401Z,12.90
2022-12-03T00:11:23.236Z,13.10
2022-12-03T00:14:10.101Z,13.33
2022-12-03T00:16:56.971Z,13.17
2022-12-03T00:19:44.539Z,12.87
2022-12-03T00:22:32.354Z,13.90
2022-12-03T00:25:19.295Z,13.53
2022-12-03T00:28:06.823Z,13.47
2022-12-03T00:30:53.676Z,13.10
2022-12-03T00:33:40.592Z,13.37
2022-12-03T00:36:28.091Z,13.83
2022-12-03T00:39:14.950Z,13.90
2022-12-03T00:42:01.815Z,15.37
2022-12-03T00:44:48.641Z,13.10
2022-12-03T00:47:35.484Z,13.13
2022-12-03T00:50:22.337Z,12.77
2022-12-03T00:53:09.948Z,14.67
2022-12-03T00:55:56.802Z,14.73
2022-12-03T00:58:43.877Z,14.43
2022-12-03T01:01:30.760Z,13.97
2022-12-03T01:04:17.707Z,14.10
2022-12-03T01:07:04.850Z,14.43
2022-12-03T01:09:52.360Z,14.60
2022-12-03T01:12:40.437Z,14.67
2022-12-03T01:15:27.325Z,14.73
2022-12-03T01:18:14.201Z,14.23
2022-12-03T01:21:01.037Z,14.60
2022-12-03T01:23:47.892Z,13.60
2022-12-03T01:26:35.377Z,15.23
2022-12-03T01:29:22.381Z,15.43
2022-12-03T01:32:18.860Z,15.57
2022-12-03T01:35:06.369Z,14.37
2022-12-03T01:37:53.245Z,14.43
2022-12-03T01:40:40.230Z,14.17
2022-12-03T01:43:27.730Z,15.20
2022-12-03T01:46:18.468Z,15.13
2022-12-03T01:49:06.428Z,15.27
2022-12-03T01:51:54.809Z,14.90
2022-12-03T01:54:45.165Z,14.73
2022-12-03T01:57:39.283Z,15.53
2022-12-03T02:00:27.584Z,15.97
2022-12-03T02:03:18.606Z,15.20
2022-12-03T02:06:08.713Z,14.57
2022-12-03T02:08:58.835Z,15.70
2022-12-03T02:11:48.879Z,15.40
2022-12-03T02:14:35.796Z,15.43
2022-12-03T02:17:23.536Z,15.83
2022-12-03T02:20:12.429Z,15.67
2022-12-03T02:23:06.861Z,15.23
2022-12-03T02:25:54.392Z,15.37
2022-12-03T02:28:44.173Z,16.00
2022-12-03T02:31:31.536Z,15.93
2022-12-03T02:34:43.645Z,16.47
2022-12-03T02:37:34.432Z,15.90
2022-12-03T02:40:24.824Z,15.43
2022-12-03T02:43:14.233Z,15.53
2022-12-03T02:46:03.101Z,16.63
2022-12-03T02:48:50.113Z,16.00
2022-12-03T02:51:39.829Z,16.23
2022-12-03T02:54:26.665Z,15.93
2022-12-03T02:57:20.830Z,17.57
2022-12-03T03:00:10.325Z,17.23
2022-12-03T03:02:57.429Z,15.37
2022-12-03T03:05:45.637Z,14.63
2022-12-03T03:08:33.293Z,15.67
2022-12-03T03:11:20.152Z,16.13
2022-12-03T03:14:07.037Z,16.17
2022-12-03T03:16:55.358Z,14.90
2022-12-03T03:19:42.775Z,15.90
2022-12-03T03:22:32.571Z,16.57
2022-12-03T03:25:21.546Z,16.80
2022-12-03T03:28:09.188Z,15.33
2022-12-03T03:30:57.282Z,15.77
2022-12-03T03:33:46.702Z,16.97
2022-12-03T03:36:34.180Z,16.37
2022-12-03T03:39:21.094Z,16.03
2022-12-03T03:42:08.690Z,16.27
2022-12-03T03:44:55.802Z,16.50
2022-12-03T03:47:43.145Z,16.07
2022-12-03T03:50:31.910Z,17.93
2022-12-03T03:53:20.391Z,16.30
2022-12-03T03:56:08.782Z,16.20
2022-12-03T03:58:55.992Z,16.53
2022-12-03T04:01:43.979Z,15.93
2022-12-03T04:04:35.968Z,15.50
2022-12-03T04:07:23.651Z,16.70
2022-12-03T04:10:26.145Z,16.33
2022-12-03T04:13:14.430Z,16.37
2022-12-03T04:16:01.431Z,16.63
2022-12-03T04:18:48.375Z,16.60
2022-12-03T04:22:08.115Z,18.33
2022-12-03T04:25:15.620Z,17.73
2022-12-03T04:28:26.020Z,16.93
2022-12-03T04:31:31.202Z,15.90
2022-12-03T04:34:36.461Z,16.67
2022-12-03T04:37:23.312Z,17.10
2022-12-03T04:40:26.844Z,17.30
2022-12-03T04:43:13.668Z,15.90
2022-12-03T04:46:01.226Z,16.67
2022-12-03T04:48:49.907Z,17.10
2022-12-03T04:51:36.760Z,17.03
2022-12-03T04:54:23.692Z,17.17
2022-12-03T04:57:11.774Z,17.97
2022-12-03T04:59:58.654Z,16.30
2022-12-03T05:02:45.540Z,17.00
2022-12-03T05:05:32.388Z,17.07
2022-12-03T05:08:19.264Z,15.93
2022-12-03T05:11:06.209Z,16.90
2022-12-03T05:13:53.674Z,16.97
2022-12-03T05:16:40.551Z,16.60
2022-12-03T05:19:42.067Z,17.67
2022-12-03T05:22:28.939Z,15.70
2022-12-03T05:25:15.944Z,16.53
2022-12-03T05:28:03.359Z,17.03
2022-12-03T05:30:51.003Z,17.17
2022-12-03T05:33:43.770Z,18.97
2022-12-03T05:36:31.157Z,19.80
2022-12-03T05:39:17.969Z,19.20
2022-12-03T05:42:22.977Z,18.43
2022-12-03T05:45:10.196Z,19.60
2022-12-03T05:47:58.612Z,19.50
2022-12-03T05:50:46.129Z,20.00
2022-12-03T05:53:36.143Z,19.37
2022-12-03T05:56:23.038Z,21.17
2022-12-03T05:59:09.905Z,19.00
2022-12-03T06:01:57.019Z,18.97
2022-12-03T06:04:44.470Z,19.20
2022-12-03T06:07:31.355Z,19.03
2022-12-03T06:10:21.235Z,19.73
2022-12-03T06:13:08.087Z,19.40
2022-12-03T06:15:54.992Z,19.00
2022-12-03T06:18:41.962Z,18.07
2022-12-03T06:21:29.443Z,17.30
2022-12-03T06:24:16.275Z,18.77
2022-12-03T06:27:03.219Z,18.07
2022-12-03T06:29:50.079Z,17.57
2022-12-03T06:32:36.939Z,18.13
2022-12-03T06:35:23.788Z,17.10
2022-12-03T06:38:11.279Z,16.30
2022-12-03T06:40:58.110Z,18.60
2022-12-03T06:43:45.019Z,16.17
2022-12-03T06:46:32.456Z,18.10
2022-12-03T06:49:19.391Z,17.43
2022-12-03T06:52:06.232Z,16.53
2022-12-03T06:54:54.978Z,14.80
2022-12-03T06:57:42.036Z,16.23
2022-12-03T07:00:28.939Z,16.20
2022-12-03T07:03:15.906Z,15.67
2022-12-03T07:06:03.069Z,15.57
2022-12-03T07:08:49.952Z,16.13
2022-12-03T07:11:39.603Z,16.27
2022-12-03T07:14:26.456Z,16.13
2022-12-03T07:17:13.352Z,15.90
2022-12-03T07:20:00.223Z,16.93
2022-12-03T07:22:47.059Z,16.53
2022-12-03T07:25:33.900Z,15.10
2022-12-03T07:28:21.370Z,17.23
2022-12-03T07:31:08.307Z,16.43
2022-12-03T07:33:55.193Z,15.70
2022-12-03T07:36:42.463Z,16.00
2022-12-03T07:39:29.643Z,16.93
2022-12-03T07:42:16.481Z,15.53
2022-12-03T07:45:05.238Z,15.47
2022-12-03T07:47:52.111Z,14.97
2022-12-03T07:50:39.159Z,13.53
2022-12-03T07:53:26.035Z,13.90
2022-12-03T07:56:12.887Z,14.03
2022-12-03T07:58:59.971Z,13.37
2022-12-03T08:01:47.553Z,12.50
2022-12-03T08:04:34.411Z,13.50
2022-12-03T08:07:21.277Z,12.90
2022-12-03T08:10:08.585Z,12.83
2022-12-03T08:12:57.680Z,13.13
2022-12-03T08:15:45.131Z,12.90
2022-12-03T08:18:32.741Z,13.27
2022-12-03T08:21:21.043Z,12.87
2022-12-03T08:24:13.954Z,13.17
2022-12-03T08:27:00.807Z,13.37
2022-12-03T08:29:47.683Z,13.27
2022-12-03T08:32:34.537Z,13.20
2022-12-03T08:35:24.100Z,13.33
2022-12-03T08:38:12.197Z,12.87
2022-12-03T08:40:59.073Z,13.23
2022-12-03T08:43:45.956Z,14.50
2022-12-03T08:46:32.789Z,13.77
2022-12-03T08:49:21.060Z,13.67
2022-12-03T08:52:14.548Z,13.67
2022-12-03T08:55:28.413Z,12.47
2022-12-03T08:58:21.489Z,12.23
2022-12-03T09:01:28.237Z,13.87
2022-12-03T09:04:25.634Z,12.43
2022-12-03T09:07:13.156Z,12.97
2022-12-03T09:09:59.993Z,12.73
2022-12-03T09:12:47.535Z,12.90
2022-12-03T09:15:51.741Z,12.70
2022-12-03T09:18:38.603Z,12.60
2022-12-03T09:21:25.472Z,13.23
